ADDS METAR Data INFO
IDs: Format: Raw Decoded Include TAF

Data at: 0156 UTC 19 Jul 2018

KODO 190153Z AUTO 17007KT 10SM CLR 36/09 A2996 RMK AO2 SLP086 T03560089
KODO 190053Z AUTO 17004KT 10SM CLR 37/09 A2995 RMK AO2 SLP084 T03720089
KODO 182353Z AUTO 19008KT 10SM CLR 38/08 A2996 RMK AO2 SLP086 T03780083 10383 20356 56019
KODO 182253Z AUTO 18009KT 120V200 10SM CLR 38/08 A2997 RMK AO2 SLP091 T03830083
KODO 182153Z AUTO VRB03KT 10SM CLR 37/08 A2999 RMK AO2 SLP097 T03720083
KODO 182053Z AUTO 16007KT 110V190 10SM CLR 38/09 A3002 RMK AO2 SLP106 T03780089 56020
KODO 181953Z AUTO 17007KT 10SM CLR 37/09 A3004 RMK AO2 SLP113 T03720089
KODO 181853Z AUTO 16007KT 10SM CLR 37/09 A3006 RMK AO2 SLP119 T03670094
KODO 181753Z AUTO 19010KT 10SM CLR 36/09 A3008 RMK AO2 SLP127 T03560094 10356 20244 58012
KODO 181653Z AUTO 19010KT 10SM CLR 34/12 A3010 RMK AO2 SLP134 T03440117
KODO 181553Z AUTO 21009KT 10SM CLR 32/12 A3011 RMK AO2 SLP138 T03220117
KODO 181453Z AUTO 20013KT 10SM CLR 30/12 A3012 RMK AO2 SLP143 T03000117 51005
KODO 181353Z AUTO 19009KT 10SM CLR 27/12 A3012 RMK AO2 SLP144 T02720122
KODO 181253Z AUTO 18006KT 10SM CLR 26/12 A3011 RMK AO2 SLP141 T02560117
KODO 181153Z AUTO 19005KT 10SM CLR 25/12 A3010 RMK AO2 SLP138 T02500117 10294 20250 53002
KODO 181053Z AUTO 18009KT 10SM CLR 26/11 A3009 RMK AO2 SLP134 T02610111
KODO 180953Z AUTO 17006KT 10SM CLR 27/10 A3009 RMK AO2 SLP133 T02670100
KODO 180853Z AUTO 19006KT 10SM CLR 27/10 A3009 RMK AO2 SLP135 T02670100 58002
KODO 180753Z AUTO 20006KT 10SM CLR 27/10 A3010 RMK AO2 SLP137 T02720100
KODO 180653Z AUTO 19008KT 10SM CLR 29/09 A3011 RMK AO2 SLP140 T02890089
KODO 180553Z AUTO 18007KT 10SM CLR 29/09 A3010 RMK AO2 SLP137 T02940089 10361 20294 403610233 51015
KODO 180453Z AUTO 18009KT 10SM CLR 31/10 A3009 RMK AO2 SLP133 T03060100
KODO 180353Z AUTO 18008KT 10SM CLR 32/11 A3008 RMK AO2 SLP129 T03170111
KODO 180253Z AUTO 14004KT 10SM CLR 32/10 A3005 RMK AO2 SLP122 T03220100 56001
KODO 180153Z AUTO 16005KT 10SM CLR 33/10 A3005 RMK AO2 SLP122 T03330100
KODO 180053Z AUTO 00000KT 10SM CLR 35/09 A3005 RMK AO2 SLP122 T03500094
KODO 172353Z AUTO 20010G15KT 10SM CLR 36/08 A3006 RMK AO2 SLP122 T03610083 10361 20322 56016
KODO 172253Z AUTO 15007KT 10SM CLR 36/09 A3007 RMK AO2 SLP127 T03560089
KODO 172153Z AUTO 22006KT 10SM CLR 36/08 A3008 RMK AO2 SLP133 T03560083
KODO 172053Z AUTO 23008KT 10SM CLR 36/08 A3011 RMK AO2 SLP140 T03560083 58017
KODO 171953Z AUTO 22006KT 10SM CLR 34/11 A3012 RMK AO2 SLP146 T03440106
KODO 171853Z AUTO 19004G15KT 10SM CLR 33/12 A3014 RMK AO2 SLP153 T03330117
KODO 171753Z AUTO VRB03KT 10SM CLR 32/13 A3016 RMK AO2 SLP158 T03220128 10328 20239 58004
KODO 171653Z AUTO 22007KT 160V250 10SM CLR 31/14 A3017 RMK AO2 SLP162 T03110144
KODO 171553Z AUTO 19008KT 10SM CLR 29/14 A3017 RMK AO2 SLP163 T02940144
KODO 171453Z AUTO 21011KT 9SM CLR 28/14 A3017 RMK AO2 SLP165 T02780139 51012